sensor_id;sensor_type;location;lat;lon;timestamp;P1;durP1;ratioP1;P2;durP2;ratioP2
14143;SDS011;7152;48.348;10.980;2023-04-24T00:00:57;1.80;;;1.60;;
14143;SDS011;7152;48.348;10.980;2023-04-24T00:03:24;1.70;;;1.60;;
14143;SDS011;7152;48.348;10.980;2023-04-24T00:05:50;2.53;;;2.00;;
14143;SDS011;7152;48.348;10.980;2023-04-24T00:08:17;3.30;;;1.77;;
14143;SDS011;7152;48.348;10.980;2023-04-24T00:10:42;1.70;;;1.60;;
14143;SDS011;7152;48.348;10.980;2023-04-24T00:13:09;1.80;;;1.70;;
14143;SDS011;7152;48.348;10.980;2023-04-24T00:15:34;3.10;;;2.07;;
14143;SDS011;7152;48.348;10.980;2023-04-24T00:18:00;2.87;;;2.07;;
14143;SDS011;7152;48.348;10.980;2023-04-24T00:20:26;2.73;;;1.83;;
14143;SDS011;7152;48.348;10.980;2023-04-24T00:22:54;1.53;;;1.43;;
14143;SDS011;7152;48.348;10.980;2023-04-24T00:25:20;1.60;;;1.50;;
14143;SDS011;7152;48.348;10.980;2023-04-24T00:27:46;1.43;;;1.23;;
14143;SDS011;7152;48.348;10.980;2023-04-24T00:30:11;1.77;;;1.57;;
14143;SDS011;7152;48.348;10.980;2023-04-24T00:32:37;2.10;;;1.40;;
14143;SDS011;7152;48.348;10.980;2023-04-24T00:35:03;2.13;;;1.70;;
14143;SDS011;7152;48.348;10.980;2023-04-24T00:37:29;1.40;;;1.30;;
14143;SDS011;7152;48.348;10.980;2023-04-24T00:39:54;1.83;;;1.47;;
14143;SDS011;7152;48.348;10.980;2023-04-24T00:42:20;2.97;;;1.37;;
14143;SDS011;7152;48.348;10.980;2023-04-24T00:44:46;2.20;;;1.30;;
14143;SDS011;7152;48.348;10.980;2023-04-24T00:47:12;1.30;;;1.20;;
14143;SDS011;7152;48.348;10.980;2023-04-24T00:49:38;1.57;;;1.10;;
14143;SDS011;7152;48.348;10.980;2023-04-24T00:52:04;1.10;;;1.10;;
14143;SDS011;7152;48.348;10.980;2023-04-24T00:54:33;1.20;;;1.07;;
14143;SDS011;7152;48.348;10.980;2023-04-24T00:57:04;2.30;;;1.07;;
14143;SDS011;7152;48.348;10.980;2023-04-24T00:59:30;1.20;;;1.10;;
14143;SDS011;7152;48.348;10.980;2023-04-24T01:01:56;2.27;;;1.00;;
14143;SDS011;7152;48.348;10.980;2023-04-24T01:04:23;1.23;;;1.13;;
14143;SDS011;7152;48.348;10.980;2023-04-24T01:06:49;2.80;;;1.47;;
14143;SDS011;7152;48.348;10.980;2023-04-24T01:09:16;1.50;;;1.40;;
14143;SDS011;7152;48.348;10.980;2023-04-24T01:11:42;1.40;;;1.00;;
14143;SDS011;7152;48.348;10.980;2023-04-24T01:14:08;1.27;;;1.13;;
14143;SDS011;7152;48.348;10.980;2023-04-24T01:16:34;1.50;;;1.20;;
14143;SDS011;7152;48.348;10.980;2023-04-24T01:19:00;1.33;;;1.23;;
14143;SDS011;7152;48.348;10.980;2023-04-24T01:21:26;1.50;;;1.40;;
14143;SDS011;7152;48.348;10.980;2023-04-24T01:23:54;1.23;;;1.13;;
14143;SDS011;7152;48.348;10.980;2023-04-24T01:26:20;1.03;;;1.00;;
14143;SDS011;7152;48.348;10.980;2023-04-24T01:28:47;1.20;;;1.10;;
14143;SDS011;7152;48.348;10.980;2023-04-24T01:31:13;1.70;;;1.20;;
14143;SDS011;7152;48.348;10.980;2023-04-24T01:33:41;1.53;;;1.20;;
14143;SDS011;7152;48.348;10.980;2023-04-24T01:36:08;1.90;;;1.20;;
14143;SDS011;7152;48.348;10.980;2023-04-24T01:38:35;1.67;;;1.37;;
14143;SDS011;7152;48.348;10.980;2023-04-24T01:41:01;1.30;;;1.20;;
14143;SDS011;7152;48.348;10.980;2023-04-24T01:43:27;2.00;;;1.00;;
14143;SDS011;7152;48.348;10.980;2023-04-24T01:45:54;1.50;;;1.20;;
14143;SDS011;7152;48.348;10.980;2023-04-24T01:48:19;1.90;;;1.07;;
14143;SDS011;7152;48.348;10.980;2023-04-24T01:50:45;1.47;;;1.00;;
14143;SDS011;7152;48.348;10.980;2023-04-24T01:53:11;1.10;;;0.90;;
14143;SDS011;7152;48.348;10.980;2023-04-24T01:55:37;1.73;;;1.30;;
14143;SDS011;7152;48.348;10.980;2023-04-24T01:58:02;3.10;;;1.23;;
14143;SDS011;7152;48.348;10.980;2023-04-24T02:00:28;1.30;;;1.20;;
14143;SDS011;7152;48.348;10.980;2023-04-24T02:02:54;2.10;;;1.30;;
14143;SDS011;7152;48.348;10.980;2023-04-24T02:05:19;1.20;;;1.10;;
14143;SDS011;7152;48.348;10.980;2023-04-24T02:07:45;2.00;;;1.07;;
14143;SDS011;7152;48.348;10.980;2023-04-24T02:10:11;1.27;;;1.17;;
14143;SDS011;7152;48.348;10.980;2023-04-24T02:12:37;1.73;;;1.37;;
14143;SDS011;7152;48.348;10.980;2023-04-24T02:15:03;1.60;;;1.43;;
14143;SDS011;7152;48.348;10.980;2023-04-24T02:17:29;1.60;;;1.50;;
14143;SDS011;7152;48.348;10.980;2023-04-24T02:19:55;1.53;;;1.30;;
14143;SDS011;7152;48.348;10.980;2023-04-24T02:22:21;1.67;;;1.00;;
14143;SDS011;7152;48.348;10.980;2023-04-24T02:24:47;2.93;;;1.30;;
14143;SDS011;7152;48.348;10.980;2023-04-24T02:27:12;2.07;;;1.30;;
14143;SDS011;7152;48.348;10.980;2023-04-24T02:29:38;1.10;;;1.00;;
14143;SDS011;7152;48.348;10.980;2023-04-24T02:32:03;1.50;;;1.30;;
14143;SDS011;7152;48.348;10.980;2023-04-24T02:34:29;1.73;;;1.20;;
14143;SDS011;7152;48.348;10.980;2023-04-24T02:36:55;1.50;;;1.20;;
14143;SDS011;7152;48.348;10.980;2023-04-24T02:39:20;2.90;;;1.40;;
14143;SDS011;7152;48.348;10.980;2023-04-24T02:41:46;1.43;;;1.33;;
14143;SDS011;7152;48.348;10.980;2023-04-24T02:44:12;1.90;;;1.57;;
14143;SDS011;7152;48.348;10.980;2023-04-24T02:46:37;1.50;;;1.40;;
14143;SDS011;7152;48.348;10.980;2023-04-24T02:49:03;1.40;;;1.30;;
14143;SDS011;7152;48.348;10.980;2023-04-24T02:51:29;1.57;;;1.30;;
14143;SDS011;7152;48.348;10.980;2023-04-24T02:53:54;2.77;;;1.40;;
14143;SDS011;7152;48.348;10.980;2023-04-24T02:56:20;2.23;;;1.40;;
14143;SDS011;7152;48.348;10.980;2023-04-24T02:58:46;1.30;;;1.20;;
14143;SDS011;7152;48.348;10.980;2023-04-24T03:01:11;1.40;;;1.30;;
14143;SDS011;7152;48.348;10.980;2023-04-24T03:03:37;2.07;;;1.40;;
14143;SDS011;7152;48.348;10.980;2023-04-24T03:06:03;2.33;;;1.50;;
14143;SDS011;7152;48.348;10.980;2023-04-24T03:08:30;1.50;;;1.40;;
14143;SDS011;7152;48.348;10.980;2023-04-24T03:10:57;1.40;;;1.17;;
14143;SDS011;7152;48.348;10.980;2023-04-24T03:13:22;1.50;;;1.40;;
14143;SDS011;7152;48.348;10.980;2023-04-24T03:15:48;1.40;;;1.30;;
14143;SDS011;7152;48.348;10.980;2023-04-24T03:18:14;1.97;;;1.40;;
14143;SDS011;7152;48.348;10.980;2023-04-24T03:20:39;2.67;;;1.50;;
14143;SDS011;7152;48.348;10.980;2023-04-24T03:23:05;2.07;;;1.50;;
14143;SDS011;7152;48.348;10.980;2023-04-24T03:25:31;1.63;;;1.47;;
14143;SDS011;7152;48.348;10.980;2023-04-24T03:27:56;1.97;;;1.40;;
14143;SDS011;7152;48.348;10.980;2023-04-24T03:30:22;1.87;;;1.70;;
14143;SDS011;7152;48.348;10.980;2023-04-24T03:32:47;2.10;;;1.73;;
14143;SDS011;7152;48.348;10.980;2023-04-24T03:35:13;1.93;;;1.80;;
14143;SDS011;7152;48.348;10.980;2023-04-24T03:37:39;2.07;;;1.60;;
14143;SDS011;7152;48.348;10.980;2023-04-24T03:40:04;3.63;;;1.60;;
14143;SDS011;7152;48.348;10.980;2023-04-24T03:42:32;1.60;;;1.50;;
14143;SDS011;7152;48.348;10.980;2023-04-24T03:44:57;1.60;;;1.50;;
14143;SDS011;7152;48.348;10.980;2023-04-24T03:47:23;3.10;;;1.43;;
14143;SDS011;7152;48.348;10.980;2023-04-24T03:49:49;2.27;;;1.40;;
14143;SDS011;7152;48.348;10.980;2023-04-24T03:52:15;1.60;;;1.40;;
14143;SDS011;7152;48.348;10.980;2023-04-24T03:54:40;1.47;;;1.20;;
14143;SDS011;7152;48.348;10.980;2023-04-24T03:57:06;1.40;;;1.30;;
14143;SDS011;7152;48.348;10.980;2023-04-24T03:59:31;2.37;;;1.57;;
14143;SDS011;7152;48.348;10.980;2023-04-24T04:01:57;1.23;;;1.13;;
14143;SDS011;7152;48.348;10.980;2023-04-24T04:04:23;1.50;;;1.37;;
14143;SDS011;7152;48.348;10.980;2023-04-24T04:06:48;3.73;;;1.30;;
14143;SDS011;7152;48.348;10.980;2023-04-24T04:09:14;2.77;;;1.47;;
14143;SDS011;7152;48.348;10.980;2023-04-24T04:11:40;1.70;;;1.50;;
14143;SDS011;7152;48.348;10.980;2023-04-24T04:14:05;1.90;;;1.43;;
14143;SDS011;7152;48.348;10.980;2023-04-24T04:16:31;1.57;;;1.47;;
14143;SDS011;7152;48.348;10.980;2023-04-24T04:18:56;2.77;;;1.73;;
14143;SDS011;7152;48.348;10.980;2023-04-24T04:21:22;4.37;;;1.50;;
14143;SDS011;7152;48.348;10.980;2023-04-24T04:23:48;1.57;;;1.47;;
14143;SDS011;7152;48.348;10.980;2023-04-24T04:26:13;2.47;;;1.60;;
14143;SDS011;7152;48.348;10.980;2023-04-24T04:28:39;1.83;;;1.50;;
14143;SDS011;7152;48.348;10.980;2023-04-24T04:31:05;2.20;;;1.63;;
14143;SDS011;7152;48.348;10.980;2023-04-24T04:33:32;2.90;;;1.37;;
14143;SDS011;7152;48.348;10.980;2023-04-24T04:35:58;1.57;;;1.47;;
14143;SDS011;7152;48.348;10.980;2023-04-24T04:38:25;3.13;;;1.60;;
14143;SDS011;7152;48.348;10.980;2023-04-24T04:40:54;2.03;;;1.50;;
14143;SDS011;7152;48.348;10.980;2023-04-24T04:43:22;1.73;;;1.40;;
14143;SDS011;7152;48.348;10.980;2023-04-24T04:45:49;1.57;;;1.47;;
14143;SDS011;7152;48.348;10.980;2023-04-24T04:48:16;1.90;;;1.30;;
14143;SDS011;7152;48.348;10.980;2023-04-24T04:50:42;1.10;;;1.00;;
14143;SDS011;7152;48.348;10.980;2023-04-24T04:53:08;1.77;;;1.47;;
14143;SDS011;7152;48.348;10.980;2023-04-24T04:55:33;5.90;;;1.83;;
14143;SDS011;7152;48.348;10.980;2023-04-24T04:57:59;1.77;;;1.30;;
14143;SDS011;7152;48.348;10.980;2023-04-24T05:00:25;2.60;;;1.10;;
14143;SDS011;7152;48.348;10.980;2023-04-24T05:02:52;1.63;;;1.27;;
14143;SDS011;7152;48.348;10.980;2023-04-24T05:05:18;1.73;;;1.20;;
14143;SDS011;7152;48.348;10.980;2023-04-24T05:07:44;1.20;;;1.10;;
14143;SDS011;7152;48.348;10.980;2023-04-24T05:10:09;1.13;;;1.00;;
14143;SDS011;7152;48.348;10.980;2023-04-24T05:12:35;1.07;;;0.93;;
14143;SDS011;7152;48.348;10.980;2023-04-24T05:15:01;1.10;;;0.97;;
14143;SDS011;7152;48.348;10.980;2023-04-24T05:17:27;0.90;;;0.90;;
14143;SDS011;7152;48.348;10.980;2023-04-24T05:19:53;2.53;;;1.03;;
14143;SDS011;7152;48.348;10.980;2023-04-24T05:22:19;2.73;;;1.00;;
14143;SDS011;7152;48.348;10.980;2023-04-24T05:24:46;1.00;;;1.00;;
14143;SDS011;7152;48.348;10.980;2023-04-24T05:27:12;1.00;;;0.87;;
14143;SDS011;7152;48.348;10.980;2023-04-24T05:29:38;1.10;;;0.73;;
14143;SDS011;7152;48.348;10.980;2023-04-24T05:32:03;1.13;;;0.90;;
14143;SDS011;7152;48.348;10.980;2023-04-24T05:34:29;1.97;;;1.20;;
14143;SDS011;7152;48.348;10.980;2023-04-24T05:36:55;0.87;;;0.87;;
14143;SDS011;7152;48.348;10.980;2023-04-24T05:39:21;0.77;;;0.77;;
14143;SDS011;7152;48.348;10.980;2023-04-24T05:41:46;1.30;;;0.90;;
14143;SDS011;7152;48.348;10.980;2023-04-24T05:44:12;1.13;;;1.00;;
14143;SDS011;7152;48.348;10.980;2023-04-24T05:46:38;1.07;;;0.80;;
14143;SDS011;7152;48.348;10.980;2023-04-24T05:49:03;2.17;;;0.80;;
14143;SDS011;7152;48.348;10.980;2023-04-24T05:51:29;0.70;;;0.70;;
14143;SDS011;7152;48.348;10.980;2023-04-24T05:53:56;1.10;;;0.87;;
14143;SDS011;7152;48.348;10.980;2023-04-24T05:56:22;1.50;;;0.70;;
14143;SDS011;7152;48.348;10.980;2023-04-24T05:58:48;0.80;;;0.80;;
14143;SDS011;7152;48.348;10.980;2023-04-24T06:01:13;1.40;;;1.00;;
14143;SDS011;7152;48.348;10.980;2023-04-24T06:03:40;1.13;;;0.80;;
14143;SDS011;7152;48.348;10.980;2023-04-24T06:06:06;0.70;;;0.70;;
14143;SDS011;7152;48.348;10.980;2023-04-24T06:08:32;0.77;;;0.77;;
14143;SDS011;7152;48.348;10.980;2023-04-24T06:10:59;0.70;;;0.70;;
14143;SDS011;7152;48.348;10.980;2023-04-24T06:13:25;1.07;;;0.90;;
14143;SDS011;7152;48.348;10.980;2023-04-24T06:15:51;1.13;;;0.83;;
14143;SDS011;7152;48.348;10.980;2023-04-24T06:18:17;1.37;;;0.70;;
14143;SDS011;7152;48.348;10.980;2023-04-24T06:20:43;0.80;;;0.80;;
14143;SDS011;7152;48.348;10.980;2023-04-24T06:23:08;2.10;;;0.80;;
14143;SDS011;7152;48.348;10.980;2023-04-24T06:25:34;1.40;;;0.80;;
14143;SDS011;7152;48.348;10.980;2023-04-24T06:28:00;0.70;;;0.70;;
14143;SDS011;7152;48.348;10.980;2023-04-24T06:30:26;1.10;;;0.63;;
14143;SDS011;7152;48.348;10.980;2023-04-24T06:32:53;0.90;;;0.80;;
14143;SDS011;7152;48.348;10.980;2023-04-24T06:35:18;2.00;;;0.83;;
14143;SDS011;7152;48.348;10.980;2023-04-24T06:37:45;1.47;;;0.60;;
14143;SDS011;7152;48.348;10.980;2023-04-24T06:40:11;0.90;;;0.70;;
14143;SDS011;7152;48.348;10.980;2023-04-24T06:42:37;0.70;;;0.70;;
14143;SDS011;7152;48.348;10.980;2023-04-24T06:45:03;1.20;;;0.80;;
14143;SDS011;7152;48.348;10.980;2023-04-24T06:47:30;0.73;;;0.73;;
14143;SDS011;7152;48.348;10.980;2023-04-24T06:49:56;1.07;;;0.50;;
14143;SDS011;7152;48.348;10.980;2023-04-24T06:52:22;0.70;;;0.70;;
14143;SDS011;7152;48.348;10.980;2023-04-24T06:54:48;0.97;;;0.60;;
14143;SDS011;7152;48.348;10.980;2023-04-24T06:57:13;0.63;;;0.63;;
14143;SDS011;7152;48.348;10.980;2023-04-24T06:59:41;0.60;;;0.60;;
14143;SDS011;7152;48.348;10.980;2023-04-24T07:02:07;0.50;;;0.50;;
14143;SDS011;7152;48.348;10.980;2023-04-24T07:04:32;0.60;;;0.60;;
14143;SDS011;7152;48.348;10.980;2023-04-24T07:06:58;2.03;;;0.73;;
14143;SDS011;7152;48.348;10.980;2023-04-24T07:09:24;0.90;;;0.80;;
14143;SDS011;7152;48.348;10.980;2023-04-24T07:11:53;0.47;;;0.43;;
14143;SDS011;7152;48.348;10.980;2023-04-24T07:14:21;1.33;;;0.60;;
14143;SDS011;7152;48.348;10.980;2023-04-24T07:16:47;1.10;;;0.60;;
14143;SDS011;7152;48.348;10.980;2023-04-24T07:19:13;0.50;;;0.50;;
14143;SDS011;7152;48.348;10.980;2023-04-24T07:21:39;0.60;;;0.60;;
14143;SDS011;7152;48.348;10.980;2023-04-24T07:24:04;0.97;;;0.70;;
14143;SDS011;7152;48.348;10.980;2023-04-24T07:26:34;1.63;;;1.53;;
14143;SDS011;7152;48.348;10.980;2023-04-24T07:28:59;0.67;;;0.60;;
14143;SDS011;7152;48.348;10.980;2023-04-24T07:31:25;0.60;;;0.53;;
14143;SDS011;7152;48.348;10.980;2023-04-24T07:33:51;2.37;;;0.50;;
14143;SDS011;7152;48.348;10.980;2023-04-24T07:36:16;0.60;;;0.60;;
14143;SDS011;7152;48.348;10.980;2023-04-24T07:38:44;0.60;;;0.60;;
14143;SDS011;7152;48.348;10.980;2023-04-24T07:41:13;0.40;;;0.40;;
14143;SDS011;7152;48.348;10.980;2023-04-24T07:43:39;0.53;;;0.53;;
14143;SDS011;7152;48.348;10.980;2023-04-24T07:46:06;0.50;;;0.50;;
14143;SDS011;7152;48.348;10.980;2023-04-24T07:48:32;1.13;;;0.70;;
14143;SDS011;7152;48.348;10.980;2023-04-24T07:50:58;1.53;;;0.70;;
14143;SDS011;7152;48.348;10.980;2023-04-24T07:53:23;0.70;;;0.70;;
14143;SDS011;7152;48.348;10.980;2023-04-24T07:55:49;0.93;;;0.93;;
14143;SDS011;7152;48.348;10.980;2023-04-24T07:58:15;0.87;;;0.83;;
14143;SDS011;7152;48.348;10.980;2023-04-24T08:00:40;2.07;;;1.07;;
14143;SDS011;7152;48.348;10.980;2023-04-24T08:03:06;1.57;;;1.10;;
14143;SDS011;7152;48.348;10.980;2023-04-24T08:05:32;1.20;;;1.10;;
14143;SDS011;7152;48.348;10.980;2023-04-24T08:07:58;1.40;;;1.30;;
14143;SDS011;7152;48.348;10.980;2023-04-24T08:10:24;1.27;;;1.17;;
14143;SDS011;7152;48.348;10.980;2023-04-24T08:12:50;1.70;;;1.00;;
14143;SDS011;7152;48.348;10.980;2023-04-24T08:15:17;1.50;;;1.10;;
14143;SDS011;7152;48.348;10.980;2023-04-24T08:17:42;1.93;;;1.10;;
14143;SDS011;7152;48.348;10.980;2023-04-24T08:20:11;1.27;;;1.10;;
14143;SDS011;7152;48.348;10.980;2023-04-24T08:22:40;1.10;;;0.97;;
14143;SDS011;7152;48.348;10.980;2023-04-24T08:25:07;2.87;;;1.03;;
14143;SDS011;7152;48.348;10.980;2023-04-24T08:27:33;0.97;;;0.87;;
14143;SDS011;7152;48.348;10.980;2023-04-24T08:29:59;1.17;;;1.00;;
14143;SDS011;7152;48.348;10.980;2023-04-24T08:32:25;1.43;;;0.90;;
14143;SDS011;7152;48.348;10.980;2023-04-24T08:34:53;1.73;;;1.20;;
14143;SDS011;7152;48.348;10.980;2023-04-24T08:37:21;1.00;;;0.90;;
14143;SDS011;7152;48.348;10.980;2023-04-24T08:39:47;1.00;;;0.93;;
14143;SDS011;7152;48.348;10.980;2023-04-24T08:42:13;1.10;;;1.07;;
14143;SDS011;7152;48.348;10.980;2023-04-24T08:44:40;1.63;;;0.90;;
14143;SDS011;7152;48.348;10.980;2023-04-24T08:47:07;1.10;;;1.00;;
14143;SDS011;7152;48.348;10.980;2023-04-24T08:49:33;1.07;;;1.00;;
14143;SDS011;7152;48.348;10.980;2023-04-24T08:52:02;1.27;;;1.00;;
14143;SDS011;7152;48.348;10.980;2023-04-24T08:54:28;0.93;;;0.93;;
14143;SDS011;7152;48.348;10.980;2023-04-24T08:56:54;1.83;;;1.10;;
14143;SDS011;7152;48.348;10.980;2023-04-24T08:59:26;1.57;;;1.10;;
14143;SDS011;7152;48.348;10.980;2023-04-24T09:01:55;1.60;;;1.43;;
14143;SDS011;7152;48.348;10.980;2023-04-24T09:04:22;2.33;;;1.10;;
14143;SDS011;7152;48.348;10.980;2023-04-24T09:06:50;1.83;;;1.10;;
14143;SDS011;7152;48.348;10.980;2023-04-24T09:09:17;1.20;;;1.10;;
14143;SDS011;7152;48.348;10.980;2023-04-24T09:11:43;1.20;;;1.00;;
14143;SDS011;7152;48.348;10.980;2023-04-24T09:14:09;2.37;;;1.10;;
14143;SDS011;7152;48.348;10.980;2023-04-24T09:16:35;1.23;;;1.23;;
14143;SDS011;7152;48.348;10.980;2023-04-24T09:19:01;1.50;;;1.40;;
14143;SDS011;7152;48.348;10.980;2023-04-24T09:21:31;1.97;;;1.20;;
14143;SDS011;7152;48.348;10.980;2023-04-24T09:24:03;1.60;;;1.47;;
14143;SDS011;7152;48.348;10.980;2023-04-24T09:26:31;1.30;;;1.20;;
14143;SDS011;7152;48.348;10.980;2023-04-24T09:28:59;2.30;;;1.43;;
14143;SDS011;7152;48.348;10.980;2023-04-24T09:31:26;1.97;;;1.60;;
14143;SDS011;7152;48.348;10.980;2023-04-24T09:33:54;1.60;;;1.50;;
14143;SDS011;7152;48.348;10.980;2023-04-24T09:36:34;1.30;;;1.20;;
14143;SDS011;7152;48.348;10.980;2023-04-24T09:39:03;2.80;;;1.50;;
14143;SDS011;7152;48.348;10.980;2023-04-24T09:41:31;2.30;;;1.57;;
14143;SDS011;7152;48.348;10.980;2023-04-24T09:43:58;1.40;;;1.30;;
14143;SDS011;7152;48.348;10.980;2023-04-24T09:46:40;2.47;;;1.30;;
14143;SDS011;7152;48.348;10.980;2023-04-24T09:49:11;1.80;;;1.50;;
14143;SDS011;7152;48.348;10.980;2023-04-24T09:51:38;1.63;;;1.33;;
14143;SDS011;7152;48.348;10.980;2023-04-24T09:54:11;1.57;;;1.20;;
14143;SDS011;7152;48.348;10.980;2023-04-24T09:56:41;1.57;;;1.00;;
14143;SDS011;7152;48.348;10.980;2023-04-24T09:59:09;2.27;;;1.00;;
14143;SDS011;7152;48.348;10.980;2023-04-24T10:01:35;1.90;;;1.03;;
14143;SDS011;7152;48.348;10.980;2023-04-24T10:04:01;2.00;;;1.30;;
14143;SDS011;7152;48.348;10.980;2023-04-24T10:06:32;1.20;;;1.10;;
14143;SDS011;7152;48.348;10.980;2023-04-24T10:08:59;3.60;;;1.30;;
14143;SDS011;7152;48.348;10.980;2023-04-24T10:11:28;1.17;;;1.00;;
14143;SDS011;7152;48.348;10.980;2023-04-24T10:13:55;1.50;;;1.40;;
14143;SDS011;7152;48.348;10.980;2023-04-24T10:16:22;1.67;;;1.13;;
14143;SDS011;7152;48.348;10.980;2023-04-24T10:18:51;1.23;;;0.87;;
14143;SDS011;7152;48.348;10.980;2023-04-24T10:21:17;1.63;;;0.93;;
14143;SDS011;7152;48.348;10.980;2023-04-24T10:23:43;1.47;;;0.93;;
14143;SDS011;7152;48.348;10.980;2023-04-24T10:26:14;2.17;;;1.20;;
14143;SDS011;7152;48.348;10.980;2023-04-24T10:28:46;0.90;;;0.90;;
14143;SDS011;7152;48.348;10.980;2023-04-24T10:31:13;1.20;;;1.10;;
14143;SDS011;7152;48.348;10.980;2023-04-24T10:33:42;1.00;;;1.00;;
14143;SDS011;7152;48.348;10.980;2023-04-24T10:36:10;1.20;;;1.10;;
14143;SDS011;7152;48.348;10.980;2023-04-24T10:38:38;1.20;;;1.10;;
14143;SDS011;7152;48.348;10.980;2023-04-24T10:41:10;1.23;;;1.13;;
14143;SDS011;7152;48.348;10.980;2023-04-24T10:43:41;3.87;;;1.33;;
14143;SDS011;7152;48.348;10.980;2023-04-24T10:46:07;4.10;;;1.07;;
14143;SDS011;7152;48.348;10.980;2023-04-24T10:48:35;1.43;;;1.33;;
14143;SDS011;7152;48.348;10.980;2023-04-24T10:51:10;1.77;;;1.03;;
14143;SDS011;7152;48.348;10.980;2023-04-24T10:53:37;2.20;;;1.40;;
14143;SDS011;7152;48.348;10.980;2023-04-24T11:01:11;1.40;;;1.30;;
14143;SDS011;7152;48.348;10.980;2023-04-24T11:03:55;1.47;;;1.37;;
14143;SDS011;7152;48.348;10.980;2023-04-24T11:06:33;3.40;;;1.17;;
14143;SDS011;7152;48.348;10.980;2023-04-24T11:09:04;2.57;;;1.30;;
14143;SDS011;7152;48.348;10.980;2023-04-24T11:11:31;4.33;;;1.30;;
14143;SDS011;7152;48.348;10.980;2023-04-24T11:18:52;2.53;;;1.70;;
14143;SDS011;7152;48.348;10.980;2023-04-24T11:21:24;1.70;;;1.60;;
14143;SDS011;7152;48.348;10.980;2023-04-24T11:23:51;1.67;;;1.30;;
14143;SDS011;7152;48.348;10.980;2023-04-24T11:26:21;1.60;;;1.50;;
14143;SDS011;7152;48.348;10.980;2023-04-24T11:29:05;1.93;;;1.60;;
14143;SDS011;7152;48.348;10.980;2023-04-24T11:31:39;2.83;;;1.20;;
14143;SDS011;7152;48.348;10.980;2023-04-24T11:34:13;1.20;;;1.10;;
14143;SDS011;7152;48.348;10.980;2023-04-24T11:36:40;1.33;;;1.10;;
14143;SDS011;7152;48.348;10.980;2023-04-24T11:39:11;1.43;;;1.17;;
14143;SDS011;7152;48.348;10.980;2023-04-24T11:41:38;1.20;;;1.00;;
14143;SDS011;7152;48.348;10.980;2023-04-24T11:44:05;2.40;;;0.90;;
14143;SDS011;7152;48.348;10.980;2023-04-24T11:46:32;1.63;;;1.13;;
14143;SDS011;7152;48.348;10.980;2023-04-24T11:48:58;2.40;;;1.30;;
14143;SDS011;7152;48.348;10.980;2023-04-24T11:51:25;1.97;;;0.90;;
14143;SDS011;7152;48.348;10.980;2023-04-24T11:53:55;1.17;;;0.97;;
14143;SDS011;7152;48.348;10.980;2023-04-24T11:56:22;1.17;;;0.80;;
14143;SDS011;7152;48.348;10.980;2023-04-24T11:58:48;1.97;;;1.00;;
14143;SDS011;7152;48.348;10.980;2023-04-24T12:01:16;1.77;;;1.10;;
14143;SDS011;7152;48.348;10.980;2023-04-24T12:03:46;1.00;;;1.00;;
14143;SDS011;7152;48.348;10.980;2023-04-24T12:06:13;1.20;;;0.83;;
14143;SDS011;7152;48.348;10.980;2023-04-24T12:08:38;2.23;;;1.20;;
14143;SDS011;7152;48.348;10.980;2023-04-24T12:11:05;3.43;;;1.20;;
14143;SDS011;7152;48.348;10.980;2023-04-24T12:13:32;1.37;;;1.23;;
14143;SDS011;7152;48.348;10.980;2023-04-24T12:15:59;1.90;;;1.70;;
14143;SDS011;7152;48.348;10.980;2023-04-24T12:18:26;1.67;;;1.50;;
14143;SDS011;7152;48.348;10.980;2023-04-24T12:20:52;1.47;;;1.20;;
14143;SDS011;7152;48.348;10.980;2023-04-24T12:23:33;1.23;;;1.13;;
14143;SDS011;7152;48.348;10.980;2023-04-24T12:26:00;0.90;;;0.90;;
14143;SDS011;7152;48.348;10.980;2023-04-24T12:28:34;1.67;;;1.10;;
14143;SDS011;7152;48.348;10.980;2023-04-24T12:31:03;1.27;;;1.00;;
14143;SDS011;7152;48.348;10.980;2023-04-24T12:33:32;2.60;;;1.57;;
14143;SDS011;7152;48.348;10.980;2023-04-24T12:35:59;1.57;;;0.87;;
14143;SDS011;7152;48.348;10.980;2023-04-24T12:38:26;1.00;;;0.83;;
14143;SDS011;7152;48.348;10.980;2023-04-24T12:43:35;2.10;;;1.00;;
14143;SDS011;7152;48.348;10.980;2023-04-24T12:46:01;2.13;;;0.93;;
14143;SDS011;7152;48.348;10.980;2023-04-24T12:48:28;1.90;;;0.97;;
14143;SDS011;7152;48.348;10.980;2023-04-24T12:50:54;1.00;;;0.83;;
14143;SDS011;7152;48.348;10.980;2023-04-24T12:53:21;2.60;;;1.10;;
14143;SDS011;7152;48.348;10.980;2023-04-24T12:55:47;1.20;;;1.10;;
14143;SDS011;7152;48.348;10.980;2023-04-24T12:58:20;2.03;;;1.27;;
14143;SDS011;7152;48.348;10.980;2023-04-24T13:00:46;0.93;;;0.90;;
14143;SDS011;7152;48.348;10.980;2023-04-24T13:03:12;1.53;;;1.10;;
14143;SDS011;7152;48.348;10.980;2023-04-24T13:05:38;2.67;;;1.10;;
14143;SDS011;7152;48.348;10.980;2023-04-24T13:08:04;1.37;;;1.00;;
14143;SDS011;7152;48.348;10.980;2023-04-24T13:10:29;1.33;;;1.23;;
14143;SDS011;7152;48.348;10.980;2023-04-24T13:12:55;1.73;;;1.00;;
14143;SDS011;7152;48.348;10.980;2023-04-24T13:15:22;1.87;;;1.40;;
14143;SDS011;7152;48.348;10.980;2023-04-24T13:17:47;1.70;;;0.90;;
14143;SDS011;7152;48.348;10.980;2023-04-24T13:20:13;1.47;;;0.90;;
14143;SDS011;7152;48.348;10.980;2023-04-24T13:22:39;1.20;;;0.87;;
14143;SDS011;7152;48.348;10.980;2023-04-24T13:25:05;1.07;;;0.90;;
14143;SDS011;7152;48.348;10.980;2023-04-24T13:27:31;1.73;;;1.00;;
14143;SDS011;7152;48.348;10.980;2023-04-24T13:29:57;1.37;;;0.73;;
14143;SDS011;7152;48.348;10.980;2023-04-24T13:32:23;1.70;;;0.83;;
14143;SDS011;7152;48.348;10.980;2023-04-24T13:34:49;1.07;;;0.87;;
14143;SDS011;7152;48.348;10.980;2023-04-24T13:37:14;0.83;;;0.83;;
14143;SDS011;7152;48.348;10.980;2023-04-24T13:39:40;1.07;;;0.97;;
14143;SDS011;7152;48.348;10.980;2023-04-24T13:42:08;0.97;;;0.73;;
14143;SDS011;7152;48.348;10.980;2023-04-24T13:44:34;1.27;;;1.17;;
14143;SDS011;7152;48.348;10.980;2023-04-24T13:47:00;1.00;;;0.93;;
14143;SDS011;7152;48.348;10.980;2023-04-24T13:49:26;1.73;;;0.90;;
14143;SDS011;7152;48.348;10.980;2023-04-24T13:51:52;1.63;;;1.00;;
14143;SDS011;7152;48.348;10.980;2023-04-24T13:54:19;1.90;;;0.90;;
14143;SDS011;7152;48.348;10.980;2023-04-24T13:56:45;2.13;;;0.90;;
14143;SDS011;7152;48.348;10.980;2023-04-24T13:59:12;1.13;;;0.83;;
14143;SDS011;7152;48.348;10.980;2023-04-24T14:01:38;1.33;;;1.07;;
14143;SDS011;7152;48.348;10.980;2023-04-24T14:04:04;0.77;;;0.70;;
14143;SDS011;7152;48.348;10.980;2023-04-24T14:06:29;1.60;;;0.90;;
14143;SDS011;7152;48.348;10.980;2023-04-24T14:08:56;1.10;;;0.73;;
14143;SDS011;7152;48.348;10.980;2023-04-24T14:11:22;1.03;;;0.90;;
14143;SDS011;7152;48.348;10.980;2023-04-24T14:13:47;1.43;;;1.03;;
14143;SDS011;7152;48.348;10.980;2023-04-24T14:16:13;1.47;;;1.03;;
14143;SDS011;7152;48.348;10.980;2023-04-24T14:18:39;1.07;;;0.90;;
14143;SDS011;7152;48.348;10.980;2023-04-24T14:21:05;0.80;;;0.60;;
14143;SDS011;7152;48.348;10.980;2023-04-24T14:23:31;1.77;;;1.00;;
14143;SDS011;7152;48.348;10.980;2023-04-24T14:25:57;1.00;;;0.87;;
14143;SDS011;7152;48.348;10.980;2023-04-24T14:28:23;1.93;;;0.60;;
14143;SDS011;7152;48.348;10.980;2023-04-24T14:30:49;2.60;;;0.70;;
14143;SDS011;7152;48.348;10.980;2023-04-24T14:33:15;1.90;;;1.00;;
14143;SDS011;7152;48.348;10.980;2023-04-24T14:35:43;1.57;;;1.40;;
14143;SDS011;7152;48.348;10.980;2023-04-24T14:38:09;1.33;;;1.00;;
14143;SDS011;7152;48.348;10.980;2023-04-24T14:40:35;2.43;;;0.70;;
14143;SDS011;7152;48.348;10.980;2023-04-24T14:43:00;1.37;;;0.80;;
14143;SDS011;7152;48.348;10.980;2023-04-24T14:45:26;2.10;;;0.83;;
14143;SDS011;7152;48.348;10.980;2023-04-24T14:47:52;2.87;;;0.67;;
14143;SDS011;7152;48.348;10.980;2023-04-24T14:50:18;0.73;;;0.73;;
14143;SDS011;7152;48.348;10.980;2023-04-24T14:52:44;1.45;;;0.73;;
14143;SDS011;7152;48.348;10.980;2023-04-24T14:55:10;1.40;;;0.70;;
14143;SDS011;7152;48.348;10.980;2023-04-24T14:57:35;0.70;;;0.63;;